< < Back
Terminal Aerodrome Forecast


Current Version              Previous Versions:   1  2  3  4  5  6  7  8  9  

Terminal Aerodrome Forecast

796
FTAK31 PAJN 302300
TAFAGS
TAF
PAGS 302326Z 3100/3124 13007KT P6SM OVC050
     FM311000 00000KT P6SM -SHRA BKN020 OVC040
     FM311600 12003KT 5SM -SHRA BR OVC017
     FM312000 10004KT P6SM -RA OVC015
      AMD NOT SKED=



Latest METAR

182
SAUS70 KWBC 310000
MTRAGS
METAR KAGS 302353Z 15005KT 10SM SCT050 29/22 A3007 RMK AO2 SLP179
T02890217 10350 20289 53002


USA.gov is the U.S. government's official web portal to all federal, state and local government web resources and services.